createdAt,value
2023-05-17T00:01:17.010Z,99.90
2023-05-17T00:05:18.146Z,99.90
2023-05-17T00:09:19.333Z,99.90
2023-05-17T00:13:20.601Z,99.90
2023-05-17T00:17:21.813Z,99.90
2023-05-17T00:21:23.124Z,99.90
2023-05-17T00:25:24.359Z,99.90
2023-05-17T00:29:25.551Z,99.90
2023-05-17T00:33:26.745Z,99.90
2023-05-17T00:37:27.960Z,99.90
2023-05-17T00:41:29.310Z,99.90
2023-05-17T00:45:30.594Z,99.90
2023-05-17T00:49:32.330Z,99.90
2023-05-17T00:53:35.406Z,99.90
2023-05-17T00:57:36.727Z,99.90
2023-05-17T01:01:41.426Z,99.90
2023-05-17T01:05:42.716Z,99.90
2023-05-17T01:09:44.220Z,99.90
2023-05-17T01:13:58.087Z,99.90
2023-05-17T01:18:20.108Z,99.90
2023-05-17T01:22:34.473Z,99.90
2023-05-17T01:26:38.784Z,99.90
2023-05-17T01:30:41.983Z,99.90
2023-05-17T01:34:43.301Z,99.90
2023-05-17T01:38:44.585Z,99.90
2023-05-17T01:42:52.147Z,99.90
2023-05-17T01:46:57.149Z,99.90
2023-05-17T01:50:59.601Z,99.90
2023-05-17T01:55:31.554Z,99.90
2023-05-17T01:59:36.386Z,99.90
2023-05-17T02:03:37.649Z,99.90
2023-05-17T02:07:39.022Z,99.90
2023-05-17T02:11:40.225Z,99.90
2023-05-17T02:15:41.442Z,99.90
2023-05-17T02:19:42.660Z,99.90
2023-05-17T02:23:43.921Z,99.90
2023-05-17T02:27:45.148Z,99.90
2023-05-17T02:31:46.378Z,99.90
2023-05-17T02:35:49.383Z,99.90
2023-05-17T02:39:50.621Z,99.90
2023-05-17T02:43:51.836Z,99.90
2023-05-17T02:47:53.104Z,99.90
2023-05-17T02:51:54.350Z,99.90
2023-05-17T02:55:57.542Z,99.90
2023-05-17T02:59:58.820Z,99.90
2023-05-17T03:04:00.315Z,99.90
2023-05-17T03:08:01.801Z,99.90
2023-05-17T03:12:03.533Z,99.90
2023-05-17T03:16:05.071Z,99.90
2023-05-17T03:20:07.241Z,99.90
2023-05-17T03:24:08.451Z,99.90
2023-05-17T03:28:09.650Z,99.90
2023-05-17T03:32:10.851Z,99.90
2023-05-17T03:36:12.056Z,99.90
2023-05-17T03:40:13.272Z,99.90
2023-05-17T03:44:14.999Z,99.90
2023-05-17T03:48:16.281Z,99.90
2023-05-17T03:52:17.649Z,99.90
2023-05-17T03:56:18.844Z,99.90
2023-05-17T04:00:23.255Z,99.90
2023-05-17T04:04:24.530Z,99.90
2023-05-17T04:08:25.782Z,99.90
2023-05-17T04:12:26.916Z,99.90
2023-05-17T04:16:28.128Z,99.90
2023-05-17T04:20:29.316Z,99.90
2023-05-17T04:24:30.653Z,99.90
2023-05-17T04:28:33.879Z,99.90
2023-05-17T04:32:35.289Z,99.90
2023-05-17T04:36:36.546Z,99.90
2023-05-17T04:40:37.738Z,99.90
2023-05-17T04:44:38.943Z,99.90
2023-05-17T04:48:40.818Z,99.90
2023-05-17T04:52:42.002Z,99.90
2023-05-17T04:56:43.931Z,99.90
2023-05-17T05:00:45.137Z,99.90
2023-05-17T05:04:46.479Z,99.90
2023-05-17T05:08:47.735Z,99.90
2023-05-17T05:12:49.128Z,99.90
2023-05-17T05:16:50.426Z,99.90
2023-05-17T05:20:51.548Z,99.90
2023-05-17T05:24:52.862Z,99.90
2023-05-17T05:28:54.074Z,99.90
2023-05-17T05:32:57.304Z,99.90
2023-05-17T05:36:58.646Z,99.90
2023-05-17T05:40:59.857Z,99.90
2023-05-17T05:45:01.259Z,99.90
2023-05-17T05:49:02.581Z,99.90
2023-05-17T05:53:17.171Z,99.90
2023-05-17T05:57:06.983Z,99.90
2023-05-17T06:01:08.204Z,99.90
2023-05-17T06:05:09.439Z,99.90
2023-05-17T06:09:11.645Z,99.90
2023-05-17T06:13:13.187Z,99.90
2023-05-17T06:17:14.552Z,99.90
2023-05-17T06:21:17.663Z,99.90
2023-05-17T06:25:18.866Z,99.90
2023-05-17T06:29:20.270Z,99.90
2023-05-17T06:33:21.570Z,99.90
2023-05-17T06:37:23.787Z,99.90
2023-05-17T06:41:25.114Z,99.90
2023-05-17T06:45:26.838Z,99.90
2023-05-17T06:49:28.106Z,99.90
2023-05-17T06:53:29.320Z,99.90
2023-05-17T06:57:30.727Z,99.90
2023-05-17T07:01:32.487Z,99.90
2023-05-17T07:05:34.089Z,99.90
2023-05-17T07:09:35.541Z,99.90
2023-05-17T07:13:36.761Z,99.90
2023-05-17T07:17:38.010Z,99.90
2023-05-17T07:21:39.203Z,99.90
2023-05-17T07:25:43.878Z,99.90
2023-05-17T07:29:45.069Z,99.90
2023-05-17T07:33:46.323Z,99.90
2023-05-17T07:37:47.867Z,99.90
2023-05-17T07:41:49.174Z,99.90
2023-05-17T07:45:50.513Z,99.90
2023-05-17T07:49:51.725Z,99.90
2023-05-17T07:53:52.940Z,99.90
2023-05-17T07:57:54.563Z,99.90
2023-05-17T08:01:56.505Z,99.90
2023-05-17T08:05:57.767Z,99.90
2023-05-17T08:09:58.984Z,99.90
2023-05-17T08:14:00.711Z,99.90
2023-05-17T08:18:04.361Z,99.90
2023-05-17T08:22:04.965Z,99.90
2023-05-17T08:26:06.181Z,99.90
2023-05-17T08:30:11.672Z,95.60
2023-05-17T08:34:11.053Z,98.00
2023-05-17T08:38:13.410Z,99.10
2023-05-17T08:42:18.443Z,99.90
2023-05-17T08:46:23.168Z,99.90
2023-05-17T08:50:29.351Z,99.90
2023-05-17T08:54:30.660Z,99.90
2023-05-17T08:58:51.709Z,99.90
2023-05-17T09:02:42.186Z,99.90
2023-05-17T09:06:44.178Z,99.90
2023-05-17T09:10:45.392Z,99.90
2023-05-17T09:14:47.087Z,99.90
2023-05-17T09:18:58.294Z,99.90
2023-05-17T09:23:02.089Z,99.90
2023-05-17T09:27:03.646Z,99.90
2023-05-17T09:31:06.950Z,99.90
2023-05-17T09:35:10.365Z,96.20
2023-05-17T09:39:14.010Z,90.10
2023-05-17T09:43:16.422Z,85.30
2023-05-17T09:47:23.036Z,92.70
2023-05-17T09:51:41.821Z,96.60
2023-05-17T09:55:47.035Z,96.80
2023-05-17T09:59:48.679Z,99.90
2023-05-17T10:03:50.781Z,99.90
2023-05-17T10:07:54.657Z,98.20
2023-05-17T10:11:57.339Z,98.80
2023-05-17T10:16:00.936Z,92.70
2023-05-17T10:20:05.959Z,91.80
2023-05-17T10:24:07.618Z,90.00
2023-05-17T10:28:11.027Z,83.70
2023-05-17T10:32:13.877Z,80.30
2023-05-17T10:36:17.081Z,85.70
2023-05-17T10:40:19.459Z,68.10
2023-05-17T10:44:21.990Z,64.70
2023-05-17T10:48:25.272Z,67.30
2023-05-17T10:52:27.114Z,77.70
2023-05-17T10:56:31.253Z,80.80
2023-05-17T11:00:36.315Z,99.90
2023-05-17T11:04:40.414Z,99.90
2023-05-17T11:09:27.972Z,74.60
2023-05-17T11:18:30.504Z,73.50
2023-05-17T11:22:31.193Z,68.80
2023-05-17T11:26:35.326Z,65.50
2023-05-17T11:30:42.747Z,66.50
2023-05-17T11:34:56.107Z,62.30
2023-05-17T11:39:14.677Z,60.30
2023-05-17T11:43:20.790Z,63.00
2023-05-17T11:47:39.259Z,60.60
2023-05-17T12:06:16.676Z,58.80
2023-05-17T12:10:53.800Z,58.30
2023-05-17T12:19:33.249Z,66.00
2023-05-17T12:23:38.983Z,56.10
2023-05-17T12:27:40.244Z,57.40
2023-05-17T12:31:44.880Z,52.00
2023-05-17T12:35:46.106Z,52.80
2023-05-17T12:39:47.879Z,56.40
2023-05-17T12:43:50.557Z,52.70
2023-05-17T12:47:52.840Z,55.30
2023-05-17T12:51:54.230Z,50.40
2023-05-17T12:55:57.378Z,49.30
2023-05-17T13:00:00.720Z,47.80
2023-05-17T13:04:03.769Z,47.10
2023-05-17T13:08:24.084Z,50.80
2023-05-17T13:12:25.437Z,49.90
2023-05-17T13:16:29.871Z,45.50
2023-05-17T13:20:31.336Z,48.90
2023-05-17T13:24:39.130Z,47.80
2023-05-17T13:28:40.855Z,48.40
2023-05-17T13:32:42.882Z,46.80
2023-05-17T13:36:44.124Z,45.90
2023-05-17T13:40:46.057Z,44.40
2023-05-17T13:44:48.104Z,44.00
2023-05-17T13:48:49.376Z,44.70
2023-05-17T13:52:50.681Z,45.00
2023-05-17T13:56:53.206Z,45.10
2023-05-17T14:00:54.509Z,44.80
2023-05-17T14:04:55.739Z,44.40
2023-05-17T14:08:58.642Z,44.30
2023-05-17T14:12:59.910Z,42.30
2023-05-17T14:17:01.278Z,43.60
2023-05-17T14:21:02.902Z,44.00
2023-05-17T14:25:06.118Z,43.80
2023-05-17T14:29:07.531Z,43.20
2023-05-17T14:33:08.939Z,41.70
2023-05-17T14:37:10.595Z,43.30
2023-05-17T14:41:11.820Z,44.40
2023-05-17T14:45:13.239Z,44.60
2023-05-17T14:49:14.561Z,44.20
2023-05-17T14:53:15.803Z,43.10
2023-05-17T14:57:17.153Z,45.20
2023-05-17T15:01:18.703Z,44.30
2023-05-17T15:05:20.312Z,44.10
2023-05-17T15:09:23.427Z,45.10
2023-05-17T15:13:24.708Z,44.40
2023-05-17T15:17:26.262Z,45.30
2023-05-17T15:21:27.506Z,45.00
2023-05-17T15:25:29.444Z,44.90
2023-05-17T15:29:32.096Z,45.20
2023-05-17T15:33:33.639Z,48.20
2023-05-17T15:37:34.936Z,45.80
2023-05-17T15:41:36.874Z,44.50
2023-05-17T15:45:38.094Z,44.50
2023-05-17T15:49:40.192Z,44.80
2023-05-17T15:53:41.773Z,44.20
2023-05-17T15:57:43.085Z,44.60
2023-05-17T16:01:45.694Z,45.70
2023-05-17T16:05:47.303Z,44.40
2023-05-17T16:09:48.563Z,44.60
2023-05-17T16:13:49.757Z,45.60
2023-05-17T16:17:51.122Z,47.10
2023-05-17T16:21:53.029Z,46.80
2023-05-17T16:25:55.551Z,48.40
2023-05-17T16:29:56.884Z,47.20
2023-05-17T16:33:58.141Z,46.60
2023-05-17T16:37:59.356Z,45.70
2023-05-17T16:42:00.867Z,45.90
2023-05-17T16:46:02.137Z,46.70
2023-05-17T16:50:04.631Z,46.10
2023-05-17T16:54:05.885Z,46.80
2023-05-17T16:58:07.917Z,47.50
2023-05-17T17:02:09.497Z,49.20
2023-05-17T17:06:10.885Z,49.00
2023-05-17T17:10:12.490Z,47.90
2023-05-17T17:14:13.691Z,47.20
2023-05-17T17:18:15.160Z,47.20
2023-05-17T17:22:16.391Z,47.60
2023-05-17T17:26:17.642Z,47.70
2023-05-17T17:30:18.998Z,48.30
2023-05-17T17:34:20.190Z,48.40
2023-05-17T17:38:21.396Z,48.80
2023-05-17T17:42:22.652Z,49.60
2023-05-17T17:46:24.654Z,49.80
2023-05-17T17:50:25.913Z,50.80
2023-05-17T17:54:27.108Z,51.00
2023-05-17T17:58:29.434Z,52.20
2023-05-17T18:02:30.680Z,51.60
2023-05-17T18:06:31.893Z,52.10
2023-05-17T18:10:33.377Z,52.90
2023-05-17T18:14:35.098Z,52.80
2023-05-17T18:18:38.263Z,52.90
2023-05-17T18:22:39.396Z,53.80
2023-05-17T18:26:40.629Z,54.40
2023-05-17T18:30:42.009Z,56.80
2023-05-17T18:34:43.330Z,55.80
2023-05-17T18:38:44.740Z,56.10
2023-05-17T18:42:45.945Z,57.70
2023-05-17T18:46:48.023Z,58.00
2023-05-17T18:50:49.301Z,59.40
2023-05-17T18:54:50.554Z,60.40
2023-05-17T18:58:54.718Z,63.10
2023-05-17T19:02:56.006Z,64.40
2023-05-17T19:06:57.374Z,66.40
2023-05-17T19:11:00.639Z,68.50
2023-05-17T19:15:03.169Z,70.60
2023-05-17T19:19:05.656Z,73.10
2023-05-17T19:23:06.892Z,76.30
2023-05-17T19:27:08.522Z,78.30
2023-05-17T19:31:09.884Z,78.80
2023-05-17T19:35:11.080Z,79.50
2023-05-17T19:39:12.292Z,84.10
2023-05-17T19:43:13.569Z,83.90
2023-05-17T19:47:14.761Z,85.90
2023-05-17T19:51:16.092Z,90.40
2023-05-17T19:55:24.411Z,92.40
2023-05-17T19:59:25.606Z,93.90
2023-05-17T20:03:27.072Z,94.20
2023-05-17T20:07:29.979Z,95.80
2023-05-17T20:11:31.170Z,95.80
2023-05-17T20:15:32.411Z,96.70
2023-05-17T20:19:33.675Z,96.20
2023-05-17T20:23:34.978Z,97.00
2023-05-17T20:27:36.166Z,97.50
2023-05-17T20:31:37.417Z,98.60
2023-05-17T20:35:38.585Z,98.50
2023-05-17T20:39:39.808Z,98.80
2023-05-17T20:43:46.326Z,98.70
2023-05-17T20:47:47.757Z,99.60
2023-05-17T20:51:49.133Z,99.90
2023-05-17T20:55:50.366Z,99.90
2023-05-17T20:59:51.860Z,99.90
2023-05-17T21:03:53.159Z,99.90
2023-05-17T21:07:55.759Z,99.90
2023-05-17T21:11:56.965Z,99.90
2023-05-17T21:15:58.535Z,99.90
2023-05-17T21:19:59.846Z,99.90
2023-05-17T21:24:01.054Z,99.90
2023-05-17T21:28:03.082Z,99.90
2023-05-17T21:32:04.896Z,99.90
2023-05-17T21:36:06.155Z,99.90
2023-05-17T21:40:08.376Z,99.90
2023-05-17T21:44:09.607Z,99.90
2023-05-17T21:48:10.970Z,99.90
2023-05-17T21:52:12.215Z,99.90
2023-05-17T21:56:13.429Z,99.90
2023-05-17T22:00:15.069Z,99.90
2023-05-17T22:04:16.289Z,99.90
2023-05-17T22:08:17.534Z,99.90
2023-05-17T22:12:20.684Z,99.90
2023-05-17T22:16:23.059Z,99.90
2023-05-17T22:20:26.210Z,99.90
2023-05-17T22:24:27.483Z,99.90
2023-05-17T22:28:28.674Z,99.90
2023-05-17T22:32:30.064Z,99.90
2023-05-17T22:36:31.533Z,99.90
2023-05-17T22:40:32.978Z,99.90
2023-05-17T22:44:35.966Z,99.90
2023-05-17T22:48:37.884Z,99.90
2023-05-17T22:52:41.131Z,99.90
2023-05-17T22:56:42.422Z,99.90
2023-05-17T23:00:43.820Z,99.90
2023-05-17T23:04:45.216Z,99.90
2023-05-17T23:08:47.054Z,99.90
2023-05-17T23:12:49.299Z,99.90
2023-05-17T23:16:51.335Z,99.90
2023-05-17T23:20:52.699Z,99.90
2023-05-17T23:24:55.102Z,99.90
2023-05-17T23:28:56.323Z,99.90
2023-05-17T23:32:57.634Z,99.90
2023-05-17T23:36:59.061Z,99.90
2023-05-17T23:41:00.247Z,99.90
2023-05-17T23:45:02.613Z,99.90
2023-05-17T23:49:04.200Z,99.90
2023-05-17T23:53:05.490Z,99.90
2023-05-17T23:57:08.721Z,99.90
